Time;durP1;ratioP1;P1;durP2;ratioP2;P2;SDS_P1;SDS_P2;PMS_P1;PMS_P2;Temp;Humidity;BMP_temperature;BMP_pressure;BME280_temperature;BME280_humidity;BME280_pressure;Samples;Min_cycle;Max_cycle;Signal;HPM_P1;HPM_P2
2023/03/10 00:01:34;;;;;;;11.20;7.00;;;;;;;-0.04;78.39;98991.06;102553;278;96225;-60
2023/03/10 00:04:10;;;;;;;10.50;6.60;;;;;;;-0.05;78.45;98990.31;102556;278;97635;-56
2023/03/10 00:06:45;;;;;;;10.80;7.60;;;;;;;-0.08;78.97;98986.30;102560;278;119142;-56
2023/03/10 00:09:23;;;;;;;10.20;6.60;;;;;;;-0.05;78.83;98986.91;102577;278;105674;-58
2023/03/10 00:11:58;;;;;;;10.30;6.20;;;;;;;-0.02;78.91;98995.06;102548;278;114191;-59
2023/03/10 00:14:36;;;;;;;11.70;7.50;;;;;;;-0.01;79.16;99000.33;102588;278;95458;-59
2023/03/10 00:17:12;;;;;;;11.70;7.10;;;;;;;0.03;79.11;98992.13;102561;278;96817;-58
2023/03/10 00:19:47;;;;;;;12.10;7.70;;;;;;;0.09;79.19;98984.43;102539;278;119972;-60
2023/03/10 00:22:26;;;;;;;11.90;7.70;;;;;;;0.09;79.39;98978.03;102607;278;106078;-59
2023/03/10 00:25:01;;;;;;;13.70;7.70;;;;;;;0.10;79.43;98973.75;102512;278;114350;-55
2023/03/10 00:27:39;;;;;;;14.40;8.90;;;;;;;0.11;79.51;98962.66;102525;278;93086;-55
2023/03/10 00:30:34;;;;;;;12.60;8.70;;;;;;;0.05;79.62;98949.61;102503;278;99835;-59
2023/03/10 00:33:14;;;;;;;14.00;8.50;;;;;;;0.05;79.68;98945.21;102488;278;121790;-56
2023/03/10 00:36:03;;;;;;;16.10;9.00;;;;;;;0.00;79.68;98947.62;102525;278;105579;-54
2023/03/10 00:38:44;;;;;;;13.90;8.20;;;;;;;0.02;79.79;98951.17;102505;278;114894;-60
2023/03/10 00:41:22;;;;;;;14.30;9.10;;;;;;;0.02;79.84;98949.38;102517;278;95128;-60
2023/03/10 00:44:01;;;;;;;15.40;9.30;;;;;;;0.02;80.16;98948.00;102506;278;98116;-58
2023/03/10 00:46:45;;;;;;;15.80;10.00;;;;;;;0.03;80.16;98943.66;102542;278;119330;-59
2023/03/10 00:49:25;;;;;;;16.90;10.30;;;;;;;-0.03;80.49;98938.71;102510;278;105378;-60
2023/03/10 00:52:04;;;;;;;16.90;9.50;;;;;;;0.05;80.41;98932.36;102514;266;114773;-60
2023/03/10 00:54:47;;;;;;;16.50;10.40;;;;;;;0.03;80.82;98932.70;102509;278;92038;-60
2023/03/10 00:57:30;;;;;;;17.70;10.30;;;;;;;0.05;80.60;98928.54;102532;278;97897;-60
2023/03/10 01:00:09;;;;;;;14.60;9.90;;;;;;;0.05;80.50;98923.23;102526;278;120225;-60
2023/03/10 01:02:51;;;;;;;16.00;10.40;;;;;;;0.03;80.61;98920.66;102475;278;105925;-61
2023/03/10 01:05:30;;;;;;;16.20;11.30;;;;;;;-0.02;80.76;98917.98;102443;278;113978;-57
2023/03/10 01:08:08;;;;;;;15.90;11.40;;;;;;;-0.02;80.75;98919.41;102522;278;93793;-59
2023/03/10 01:10:45;;;;;;;19.90;12.60;;;;;;;-0.06;80.83;98917.80;102528;278;98450;-61
2023/03/10 01:13:23;;;;;;;20.20;11.00;;;;;;;-0.05;81.00;98913.83;102498;278;119221;-56
2023/03/10 01:16:05;;;;;;;20.70;12.20;;;;;;;0.00;80.85;98917.36;102536;278;105942;-55
2023/03/10 01:18:43;;;;;;;18.10;11.20;;;;;;;0.06;80.93;98914.67;102503;278;114120;-59
2023/03/10 01:21:22;;;;;;;16.70;10.80;;;;;;;0.10;81.13;98916.94;102498;266;94556;-58
2023/03/10 01:24:01;;;;;;;21.20;13.50;;;;;;;0.07;81.63;98911.33;102528;278;98362;-59
2023/03/10 01:26:45;;;;;;;17.30;11.90;;;;;;;0.08;81.68;98901.33;102477;278;119633;-59
2023/03/10 01:29:26;;;;;;;19.80;12.40;;;;;;;0.08;82.03;98894.99;102533;278;106060;-60
2023/03/10 01:32:01;;;;;;;20.30;12.70;;;;;;;0.07;82.17;98888.33;102493;278;114409;-60
2023/03/10 01:34:39;;;;;;;22.00;12.90;;;;;;;0.06;82.42;98885.63;102499;278;94464;-60
2023/03/10 01:37:15;;;;;;;17.90;12.20;;;;;;;0.03;82.82;98885.83;102500;278;98112;-60
2023/03/10 01:39:54;;;;;;;21.30;13.20;;;;;;;-0.02;82.95;98883.48;102513;278;117193;-56
2023/03/10 01:42:32;;;;;;;22.10;13.60;;;;;;;0.03;82.94;98880.25;102518;278;105901;-57
2023/03/10 01:45:43;;;;;;;19.60;13.20;;;;;;;0.04;82.89;98879.09;102524;278;114663;-53
2023/03/10 01:48:23;;;;;;;25.80;14.40;;;;;;;0.04;83.09;98874.05;102500;278;95087;-55
2023/03/10 01:50:58;;;;;;;21.60;14.70;;;;;;;0.07;83.20;98863.58;102516;278;97757;-55
2023/03/10 01:53:38;;;;;;;21.60;14.10;;;;;;;0.06;83.05;98859.85;102517;278;118873;-55
2023/03/10 01:56:21;;;;;;;21.00;13.30;;;;;;;0.08;83.51;98854.32;102500;278;106005;-56
2023/03/10 01:58:56;;;;;;;22.00;13.40;;;;;;;0.10;83.21;98844.64;102538;278;114992;-60
2023/03/10 02:01:32;;;;;;;19.40;12.30;;;;;;;0.09;83.42;98835.05;102498;278;96520;-61
2023/03/10 02:04:16;;;;;;;21.00;14.00;;;;;;;0.04;83.46;98832.27;102509;278;96326;-58
2023/03/10 02:07:02;;;;;;;25.80;15.50;;;;;;;0.06;83.62;98826.34;102408;278;119792;-60
2023/03/10 02:09:46;;;;;;;21.50;13.50;;;;;;;0.02;83.92;98824.43;102546;278;105568;-56
2023/03/10 02:12:22;;;;;;;22.90;14.70;;;;;;;0.03;83.82;98826.20;102499;278;114593;-56
2023/03/10 02:15:03;;;;;;;21.10;13.00;;;;;;;0.03;84.15;98812.03;102533;278;96243;-55
2023/03/10 02:17:48;;;;;;;16.60;10.70;;;;;;;-0.03;84.71;98804.34;102522;278;97869;-55
2023/03/10 02:20:38;;;;;;;21.90;12.90;;;;;;;-0.05;84.92;98791.27;102478;278;119356;-54
2023/03/10 02:23:31;;;;;;;20.10;12.90;;;;;;;-0.04;84.48;98795.16;102516;278;104412;-54
2023/03/10 02:26:17;;;;;;;20.90;13.10;;;;;;;-0.02;84.82;98794.83;102460;278;114036;-54
2023/03/10 02:28:57;;;;;;;21.00;12.90;;;;;;;-0.03;84.62;98799.84;102440;278;95411;-54
2023/03/10 02:31:38;;;;;;;20.60;13.90;;;;;;;-0.02;84.56;98793.93;102527;278;97974;-54
2023/03/10 02:34:14;;;;;;;20.40;12.90;;;;;;;-0.03;84.75;98788.02;102538;278;119146;-55
2023/03/10 02:36:52;;;;;;;21.20;13.10;;;;;;;0.02;84.49;98785.21;102503;278;105847;-53
2023/03/10 02:39:36;;;;;;;20.00;12.70;;;;;;;0.05;84.64;98783.14;102492;278;113817;-54
2023/03/10 02:42:18;;;;;;;22.50;14.00;;;;;;;0.09;85.00;98767.31;102499;278;94959;-54
2023/03/10 02:44:54;;;;;;;20.50;13.30;;;;;;;0.07;84.89;98754.54;102496;278;98394;-55
2023/03/10 02:47:39;;;;;;;23.80;14.20;;;;;;;0.08;84.88;98757.79;102493;278;120292;-56
2023/03/10 02:50:22;;;;;;;23.10;14.10;;;;;;;0.09;85.24;98757.02;102479;278;105513;-59
2023/03/10 02:53:09;;;;;;;21.10;14.00;;;;;;;0.12;85.06;98762.73;102516;278;114466;-57
2023/03/10 02:55:56;;;;;;;19.10;13.20;;;;;;;0.17;85.25;98756.31;102493;278;95398;-57
2023/03/10 02:58:33;;;;;;;20.60;13.80;;;;;;;0.16;85.08;98741.71;102557;278;98154;-55
2023/03/10 03:01:08;;;;;;;20.90;13.40;;;;;;;0.14;85.21;98736.59;102560;278;119516;-54
2023/03/10 03:03:45;;;;;;;22.00;14.40;;;;;;;0.16;85.28;98735.19;102534;278;106109;-59
2023/03/10 03:06:23;;;;;;;22.50;15.00;;;;;;;0.18;85.31;98737.30;102487;278;113671;-59
2023/03/10 03:09:02;;;;;;;23.70;14.40;;;;;;;0.23;85.23;98729.63;102501;278;94926;-58
2023/03/10 03:11:38;;;;;;;25.80;15.20;;;;;;;0.24;85.24;98718.78;102525;278;97723;-59
2023/03/10 03:14:18;;;;;;;23.50;15.30;;;;;;;0.25;85.25;98705.34;102512;278;119832;-54
2023/03/10 03:16:58;;;;;;;23.80;15.40;;;;;;;0.27;85.47;98693.76;102457;278;105546;-55
2023/03/10 03:19:32;;;;;;;22.20;15.00;;;;;;;0.27;85.37;98682.67;102501;278;113061;-59
2023/03/10 03:22:08;;;;;;;23.10;14.60;;;;;;;0.27;85.51;98676.44;102482;278;95431;-59
2023/03/10 03:24:52;;;;;;;17.60;12.50;;;;;;;0.29;85.35;98677.13;102540;278;97906;-56
2023/03/10 03:27:26;;;;;;;25.40;16.00;;;;;;;0.32;85.35;98669.50;102550;278;120139;-54
2023/03/10 03:30:06;;;;;;;22.40;15.40;;;;;;;0.31;85.44;98656.47;102531;278;104009;-58
2023/03/10 03:32:44;;;;;;;22.80;14.90;;;;;;;0.27;85.77;98650.98;102520;278;112718;-59
2023/03/10 03:35:25;;;;;;;22.90;15.30;;;;;;;0.25;85.76;98657.98;102544;278;95598;-55
2023/03/10 03:38:04;;;;;;;20.20;14.80;;;;;;;0.28;85.63;98655.66;102581;278;98584;-59
2023/03/10 03:40:40;;;;;;;23.70;15.00;;;;;;;0.34;85.89;98651.06;102550;278;118497;-60
2023/03/10 03:43:15;;;;;;;22.50;15.10;;;;;;;0.33;85.75;98642.48;102534;278;105927;-58
2023/03/10 03:45:53;;;;;;;22.70;15.70;;;;;;;0.33;85.74;98633.27;102368;279;114297;-58
2023/03/10 03:48:27;;;;;;;23.60;15.90;;;;;;;0.36;85.98;98631.51;102401;279;96310;-61
2023/03/10 03:51:06;;;;;;;22.20;14.20;;;;;;;0.41;85.96;98632.81;102379;279;96981;-61
2023/03/10 03:53:48;;;;;;;22.60;14.40;;;;;;;0.39;85.89;98622.92;102401;279;119372;-55
2023/03/10 03:56:24;;;;;;;;;;;;;;;0.37;86.12;98621.52;102390;279;104684;-55
2023/03/10 03:59:02;;;;;;;24.30;15.10;;;;;;;0.38;85.86;98625.71;102394;279;112885;-56
2023/03/10 04:01:39;;;;;;;21.80;15.00;;;;;;;0.41;85.82;98621.38;102355;279;94947;-55
2023/03/10 04:04:21;;;;;;;24.00;15.40;;;;;;;0.44;85.84;98612.05;102411;279;95341;-60
2023/03/10 04:06:58;;;;;;;23.50;14.90;;;;;;;0.48;86.01;98607.88;102332;279;119744;-60
2023/03/10 04:09:40;;;;;;;27.60;15.70;;;;;;;0.49;86.07;98608.13;102413;279;105355;-56
2023/03/10 04:12:18;;;;;;;21.50;15.20;;;;;;;0.52;86.00;98588.15;102429;279;113936;-56
2023/03/10 04:15:01;;;;;;;24.70;15.50;;;;;;;0.55;86.02;98579.23;102378;279;96650;-54
2023/03/10 04:17:44;;;;;;;23.30;15.40;;;;;;;0.59;86.02;98568.70;102412;279;98430;-55
2023/03/10 04:20:20;;;;;;;20.40;15.00;;;;;;;0.59;86.27;98566.49;102358;279;120297;-61
2023/03/10 04:22:54;;;;;;;23.50;15.60;;;;;;;0.57;86.33;98561.40;102413;279;105662;-54
2023/03/10 04:25:35;;;;;;;21.70;14.50;;;;;;;0.56;86.21;98564.13;102413;279;113123;-53
2023/03/10 04:28:13;;;;;;;22.90;15.40;;;;;;;0.59;86.11;98568.04;102400;279;95735;-54
2023/03/10 04:30:49;;;;;;;23.40;15.70;;;;;;;0.59;86.31;98574.91;102399;279;97801;-54
2023/03/10 04:33:26;;;;;;;24.90;15.90;;;;;;;0.63;86.36;98577.23;102380;279;119200;-55
2023/03/10 04:36:08;;;;;;;27.10;16.70;;;;;;;0.57;86.42;98571.77;102387;279;104892;-56
2023/03/10 04:38:48;;;;;;;25.30;15.80;;;;;;;0.63;86.46;98569.55;102392;279;114745;-58
2023/03/10 04:41:26;;;;;;;25.20;17.00;;;;;;;0.60;86.50;98573.78;102391;279;96258;-58
2023/03/10 04:44:06;;;;;;;24.90;18.00;;;;;;;0.66;86.43;98565.14;102390;267;96773;-58
2023/03/10 04:46:49;;;;;;;28.90;17.80;;;;;;;0.67;86.56;98552.31;102519;278;120213;-60
2023/03/10 04:49:27;;;;;;;24.70;17.20;;;;;;;0.67;86.69;98548.06;102528;278;104829;-59
2023/03/10 04:52:01;;;;;;;26.60;19.20;;;;;;;0.65;87.03;98547.52;102555;278;114056;-59
2023/03/10 04:54:43;;;;;;;;;;;;;;;0.67;87.06;98540.76;102549;278;95957;-58
2023/03/10 04:57:23;;;;;;;29.30;18.60;;;;;;;0.65;87.29;98530.54;102517;278;97625;-59
2023/03/10 05:00:11;;;;;;;25.90;17.20;;;;;;;0.65;87.00;98519.94;102548;278;117605;-60
2023/03/10 05:02:49;;;;;;;26.20;17.80;;;;;;;0.64;87.07;98508.38;102563;278;103912;-59
2023/03/10 05:05:36;;;;;;;24.70;16.70;;;;;;;0.69;87.07;98497.03;102508;278;114191;-59
2023/03/10 05:08:18;;;;;;;26.40;17.60;;;;;;;0.67;87.45;98497.02;102526;278;95338;-58
2023/03/10 05:10:57;;;;;;;25.70;18.40;;;;;;;0.69;87.63;98487.64;102495;278;96965;-59
2023/03/10 05:13:38;;;;;;;26.80;17.80;;;;;;;0.62;88.13;98482.42;102506;278;119053;-52
2023/03/10 05:16:25;;;;;;;22.70;16.00;;;;;;;0.60;88.09;98462.01;102485;278;105364;-54
2023/03/10 05:19:07;;;;;;;26.70;18.50;;;;;;;0.57;87.89;98446.93;102483;278;113496;-55
2023/03/10 05:21:42;;;;;;;26.80;18.10;;;;;;;0.64;88.08;98459.86;102471;278;95463;-54
2023/03/10 05:24:16;;;;;;;23.50;17.10;;;;;;;0.64;88.17;98475.89;102548;278;96589;-59
2023/03/10 05:26:58;;;;;;;26.30;17.40;;;;;;;0.67;88.17;98483.42;102518;278;119781;-59
2023/03/10 05:29:40;;;;;;;26.40;17.00;;;;;;;0.67;88.14;98483.90;102523;278;105193;-58
2023/03/10 05:32:19;;;;;;;25.50;17.60;;;;;;;0.70;88.09;98477.73;102511;278;113244;-58
2023/03/10 05:34:59;;;;;;;26.90;17.50;;;;;;;0.77;88.24;98477.27;102544;278;95191;-58
2023/03/10 05:37:38;;;;;;;24.90;16.90;;;;;;;0.81;88.14;98472.36;102509;278;97812;-58
2023/03/10 05:40:18;;;;;;;24.50;15.90;;;;;;;0.85;88.22;98455.85;102489;278;117070;-59
2023/03/10 05:42:55;;;;;;;22.90;16.90;;;;;;;0.84;88.53;98442.15;102491;278;106255;-60
2023/03/10 05:45:32;;;;;;;27.30;18.00;;;;;;;0.89;88.58;98438.70;102489;278;115021;-60
2023/03/10 05:48:09;;;;;;;23.60;16.30;;;;;;;0.92;88.46;98433.92;102479;278;93641;-57
2023/03/10 05:50:45;;;;;;;28.50;18.80;;;;;;;0.90;88.62;98431.31;102528;278;95553;-58
2023/03/10 05:53:29;;;;;;;26.50;17.80;;;;;;;0.91;88.75;98438.08;102503;278;118483;-61
2023/03/10 05:56:11;;;;;;;24.90;17.60;;;;;;;0.89;88.80;98444.05;102505;278;103832;-60
2023/03/10 05:58:47;;;;;;;27.20;19.20;;;;;;;0.93;88.79;98446.41;102020;278;599043;-60
2023/03/10 06:01:24;;;;;;;26.00;17.70;;;;;;;0.97;89.11;98446.22;102514;278;95744;-60
2023/03/10 06:04:00;;;;;;;26.80;18.40;;;;;;;0.99;88.99;98441.41;102524;278;97677;-61
2023/03/10 06:06:37;;;;;;;28.40;18.20;;;;;;;1.02;88.94;98432.14;102467;278;118704;-61
2023/03/10 06:09:12;;;;;;;27.00;18.40;;;;;;;1.02;89.14;98430.09;102558;278;104409;-61
2023/03/10 06:11:50;;;;;;;27.40;18.90;;;;;;;1.01;89.31;98426.48;102529;266;113088;-60
2023/03/10 06:14:28;;;;;;;26.30;18.00;;;;;;;1.02;89.22;98427.02;102532;278;95213;-55
2023/03/10 06:17:10;;;;;;;29.30;19.30;;;;;;;1.04;89.52;98414.03;102546;278;97216;-62
2023/03/10 06:19:55;;;;;;;29.40;20.10;;;;;;;1.12;89.26;98412.61;102483;278;119509;-54
2023/03/10 06:22:38;;;;;;;29.00;18.80;;;;;;;1.19;89.12;98412.45;102511;278;105872;-54
2023/03/10 06:25:19;;;;;;;30.00;20.30;;;;;;;1.27;89.33;98408.02;102469;278;112550;-60
2023/03/10 06:28:04;;;;;;;29.20;20.20;;;;;;;1.35;89.41;98410.45;102556;278;95184;-58
2023/03/10 06:30:53;;;;;;;31.90;18.90;;;;;;;1.39;89.15;98413.80;102532;278;97702;-59
2023/03/10 06:33:37;;;;;;;29.40;19.80;;;;;;;1.38;89.45;98410.02;102501;278;119437;-55
2023/03/10 06:36:15;;;;;;;30.90;19.70;;;;;;;1.43;89.42;98392.05;102495;278;106051;-55
2023/03/10 06:38:56;;;;;;;29.50;20.20;;;;;;;1.46;89.74;98377.86;102521;278;111910;-58
2023/03/10 06:41:32;;;;;;;31.80;20.40;;;;;;;1.50;89.53;98389.84;102488;278;95101;-58
2023/03/10 06:44:08;;;;;;;31.90;20.50;;;;;;;1.50;89.69;98391.10;102562;278;97445;-55
2023/03/10 06:46:48;;;;;;;32.90;22.00;;;;;;;1.51;89.92;98394.67;102511;278;120273;-54
2023/03/10 06:49:23;;;;;;;35.00;22.70;;;;;;;1.60;89.71;98398.53;102581;278;106565;-54
2023/03/10 06:51:57;;;;;;;34.10;21.50;;;;;;;1.68;89.51;98390.08;102497;278;115214;-56
2023/03/10 06:54:33;;;;;;;30.60;20.70;;;;;;;1.76;89.69;98382.70;102494;278;95304;-56
2023/03/10 06:57:10;;;;;;;32.90;21.30;;;;;;;1.88;89.60;98387.36;102534;278;97276;-56
2023/03/10 06:59:49;;;;;;;35.90;21.90;;;;;;;1.92;89.26;98375.51;102499;278;117651;-54
2023/03/10 07:02:30;;;;;;;33.90;21.60;;;;;;;1.98;89.53;98357.36;102497;278;104839;-54
2023/03/10 07:05:05;;;;;;;35.40;23.70;;;;;;;2.03;89.65;98364.92;102469;278;113615;-56
2023/03/10 07:07:40;;;;;;;;;;;;;;;2.14;89.62;98361.42;102510;278;96072;-56
2023/03/10 07:10:18;;;;;;;34.90;22.80;;;;;;;2.23;89.55;98350.55;102507;278;98386;-59
2023/03/10 07:13:06;;;;;;;36.20;23.40;;;;;;;2.26;89.63;98354.36;102520;278;119249;-57
2023/03/10 07:15:44;;;;;;;37.30;23.80;;;;;;;2.30;89.67;98343.02;102547;278;105529;-60
2023/03/10 07:18:26;;;;;;;35.40;22.90;;;;;;;2.34;89.55;98341.56;102525;278;114548;-57
2023/03/10 07:21:06;;;;;;;38.10;23.00;;;;;;;2.44;89.38;98353.38;102519;278;94202;-57
2023/03/10 07:23:45;;;;;;;36.80;23.40;;;;;;;2.43;89.29;98328.03;102523;278;98424;-58
2023/03/10 07:26:28;;;;;;;37.30;23.90;;;;;;;2.42;89.41;98329.77;102477;278;118360;-60
2023/03/10 07:29:11;;;;;;;37.20;24.00;;;;;;;2.47;89.33;98332.55;102516;278;105531;-57
2023/03/10 07:31:56;;;;;;;38.00;24.20;;;;;;;2.57;89.40;98341.80;102479;279;114906;-56
2023/03/10 07:34:36;;;;;;;39.40;24.10;;;;;;;2.66;89.40;98344.02;102681;277;94628;-56
2023/03/10 07:37:10;;;;;;;39.00;24.70;;;;;;;2.71;89.51;98339.19;102664;277;97055;-55
2023/03/10 07:39:43;;;;;;;;;;;;;;;2.83;89.50;98335.95;102511;277;118478;-54
2023/03/10 07:42:19;;;;;;;37.00;23.80;;;;;;;2.91;89.35;98333.04;102654;277;106115;-54
2023/03/10 07:44:59;;;;;;;34.70;23.50;;;;;;;3.11;89.37;98326.15;102501;277;114276;-54
2023/03/10 07:47:38;;;;;;;39.90;25.40;;;;;;;3.31;89.13;98320.11;102621;277;94411;-53
2023/03/10 07:50:16;;;;;;;37.00;24.60;;;;;;;3.50;89.01;98315.69;102643;277;97098;-55
2023/03/10 07:52:56;;;;;;;38.30;25.40;;;;;;;3.59;88.98;98305.19;102626;277;119978;-57
2023/03/10 07:55:35;;;;;;;35.60;24.10;;;;;;;3.68;88.83;98305.27;102626;266;105367;-55
2023/03/10 07:58:14;;;;;;;33.00;23.60;;;;;;;3.69;88.58;98302.46;102644;277;113175;-61
2023/03/10 08:00:56;;;;;;;35.40;24.40;;;;;;;3.67;88.63;98288.77;102653;277;93127;-58
2023/03/10 08:03:40;;;;;;;37.60;24.60;;;;;;;3.80;88.56;98287.31;102653;277;97567;-57
2023/03/10 08:06:29;;;;;;;35.90;24.90;;;;;;;3.84;88.40;98280.48;102623;277;119333;-57
2023/03/10 08:09:10;;;;;;;37.90;24.40;;;;;;;3.92;88.23;98273.40;102632;277;104412;-58
2023/03/10 08:12:00;;;;;;;36.40;22.50;;;;;;;3.99;88.30;98274.99;102620;277;114356;-59
2023/03/10 08:14:40;;;;;;;37.00;24.60;;;;;;;4.01;88.39;98267.56;102639;277;95541;-56
2023/03/10 08:17:29;;;;;;;36.20;24.20;;;;;;;4.01;88.31;98263.25;102628;277;97312;-56
2023/03/10 08:20:07;;;;;;;36.60;23.80;;;;;;;4.07;88.28;98261.99;102519;277;118832;-56
2023/03/10 08:22:46;;;;;;;33.50;23.30;;;;;;;4.14;88.26;98256.92;102616;269;106132;-56
2023/03/10 08:25:27;;;;;;;35.90;23.90;;;;;;;4.27;88.15;98271.31;102522;277;113988;-57
2023/03/10 08:28:01;;;;;;;32.20;21.30;;;;;;;4.32;87.96;98274.36;102653;266;95090;-56
2023/03/10 08:30:43;;;;;;;37.80;24.40;;;;;;;4.26;87.92;98266.98;102582;277;98161;-55
2023/03/10 08:33:20;;;;;;;34.40;23.70;;;;;;;4.21;87.94;98260.02;102601;277;119617;-54
2023/03/10 08:36:13;;;;;;;34.40;23.00;;;;;;;4.23;87.92;98257.44;102670;277;105832;-55
2023/03/10 08:38:59;;;;;;;34.10;22.00;;;;;;;4.24;87.91;98252.52;102610;277;114626;-60
2023/03/10 08:41:35;;;;;;;34.00;22.90;;;;;;;4.32;87.79;98249.95;102618;266;96317;-60
2023/03/10 08:44:14;;;;;;;35.60;24.60;;;;;;;4.30;87.78;98246.61;102618;277;97183;-54
2023/03/10 08:46:51;;;;;;;37.50;24.30;;;;;;;4.26;87.85;98253.51;102614;277;119153;-55
2023/03/10 08:49:34;;;;;;;37.40;24.50;;;;;;;4.31;87.89;98257.27;102637;277;105838;-60
2023/03/10 08:52:12;;;;;;;37.70;23.70;;;;;;;4.49;88.05;98257.52;102566;277;114473;-59
2023/03/10 08:54:51;;;;;;;38.20;24.30;;;;;;;4.65;87.97;98254.77;102579;277;94537;-55
2023/03/10 08:57:30;;;;;;;38.00;25.30;;;;;;;4.72;87.91;98249.52;102582;277;97743;-55
2023/03/10 09:00:09;;;;;;;36.60;24.30;;;;;;;4.75;88.03;98235.81;102599;277;119091;-56
2023/03/10 09:02:48;;;;;;;32.30;20.60;;;;;;;4.84;88.14;98227.25;102609;285;105262;-55
2023/03/10 09:05:23;;;;;;;36.50;24.00;;;;;;;4.83;88.24;98221.54;102591;277;113799;-56
2023/03/10 09:07:57;;;;;;;36.30;22.30;;;;;;;5.05;88.37;98219.92;102615;277;96913;-60
2023/03/10 09:10:33;;;;;;;35.90;22.90;;;;;;;5.32;88.08;98217.20;102606;277;96043;-60
2023/03/10 09:13:11;;;;;;;33.30;20.90;;;;;;;5.36;87.68;98209.38;102607;277;119023;-56
2023/03/10 09:15:54;;;;;;;34.90;22.10;;;;;;;5.34;87.64;98202.21;102592;277;105588;-56
2023/03/10 09:18:37;;;;;;;33.20;22.20;;;;;;;5.51;87.59;98202.86;102594;277;115006;-61
2023/03/10 09:21:19;;;;;;;32.80;21.70;;;;;;;5.65;87.64;98192.39;102586;277;94813;-60
2023/03/10 09:23:58;;;;;;;32.20;21.50;;;;;;;5.71;87.54;98186.14;102632;277;98045;-60
2023/03/10 09:26:40;;;;;;;31.70;20.10;;;;;;;5.71;87.58;98185.40;102607;277;118837;-60
2023/03/10 09:29:22;;;;;;;32.30;20.90;;;;;;;5.72;87.51;98181.02;102600;277;105845;-62
2023/03/10 09:32:05;;;;;;;31.00;21.40;;;;;;;5.75;87.42;98181.03;102627;277;114276;-61
2023/03/10 09:34:44;;;;;;;32.70;21.60;;;;;;;5.74;87.42;98179.61;102609;277;96996;-61
2023/03/10 09:37:20;;;;;;;27.20;20.00;;;;;;;5.78;87.38;98172.84;102665;277;97504;-62
2023/03/10 09:39:58;;;;;;;31.60;19.60;;;;;;;5.71;87.59;98177.00;102604;277;119952;-56
2023/03/10 09:42:44;;;;;;;30.20;19.90;;;;;;;5.66;87.63;98172.90;102595;277;104674;-57
2023/03/10 09:45:40;;;;;;;29.80;18.80;;;;;;;5.62;87.81;98180.20;102631;277;115142;-57
2023/03/10 09:48:41;;;;;;;28.50;19.50;;;;;;;5.64;87.63;98179.98;102588;277;95608;-62
2023/03/10 09:51:21;;;;;;;30.10;20.70;;;;;;;5.63;87.70;98167.88;102583;277;97394;-60
2023/03/10 09:54:23;;;;;;;30.30;19.70;;;;;;;5.60;87.61;98164.30;102587;277;118958;-57
2023/03/10 09:57:03;;;;;;;31.80;20.20;;;;;;;5.54;87.63;98166.17;102580;277;104585;-58
2023/03/10 09:59:43;;;;;;;31.00;20.20;;;;;;;5.51;87.84;98172.58;102583;277;113888;-58
2023/03/10 10:02:27;;;;;;;27.80;18.60;;;;;;;5.51;87.78;98166.60;102626;277;95847;-59
2023/03/10 10:05:11;;;;;;;31.80;19.10;;;;;;;5.56;88.03;98160.73;102630;277;96877;-60
2023/03/10 10:07:57;;;;;;;32.10;20.30;;;;;;;5.59;88.33;98157.73;102668;277;119013;-59
2023/03/10 10:10:38;;;;;;;32.10;21.40;;;;;;;5.60;88.63;98145.16;102655;277;102660;-62
2023/03/10 10:13:16;;;;;;;32.90;20.20;;;;;;;5.64;88.64;98148.17;102675;277;113758;-61
2023/03/10 10:16:01;;;;;;;31.50;20.20;;;;;;;5.78;88.61;98144.29;102651;277;96575;-61
2023/03/10 10:18:48;;;;;;;31.70;19.40;;;;;;;5.89;88.66;98133.73;102691;277;96948;-61
2023/03/10 10:21:30;;;;;;;30.60;20.90;;;;;;;6.08;88.79;98114.33;102642;277;118776;-61
2023/03/10 10:24:06;;;;;;;30.30;19.50;;;;;;;6.26;88.87;98111.69;102523;277;105174;-61
2023/03/10 10:26:41;;;;;;;29.20;18.30;;;;;;;6.37;88.65;98110.36;102628;277;112681;-61
2023/03/10 10:29:22;;;;;;;26.70;18.50;;;;;;;6.33;88.62;98119.59;102628;277;96724;-62
2023/03/10 10:32:22;;;;;;;30.30;18.90;;;;;;;6.43;88.67;98113.12;102639;277;97766;-62
2023/03/10 10:35:15;;;;;;;26.20;17.80;;;;;;;6.62;88.86;98110.00;102626;277;119736;-62
2023/03/10 10:38:01;;;;;;;28.60;18.30;;;;;;;6.81;88.86;98110.11;102697;277;105986;-59
2023/03/10 10:40:57;;;;;;;27.10;17.90;;;;;;;6.96;88.69;98108.35;102692;277;114475;-57
2023/03/10 10:43:42;;;;;;;27.50;18.00;;;;;;;7.04;88.42;98109.13;102630;277;96310;-57
2023/03/10 10:46:26;;;;;;;28.50;19.00;;;;;;;7.21;88.34;98108.61;102675;277;95823;-57
2023/03/10 10:49:20;;;;;;;27.60;18.30;;;;;;;7.36;88.11;98112.27;102691;277;119503;-54
2023/03/10 10:52:05;;;;;;;31.90;18.20;;;;;;;7.49;88.01;98105.18;102715;277;104054;-55
2023/03/10 10:54:46;;;;;;;31.10;18.50;;;;;;;7.59;87.95;98105.80;102676;277;113761;-62
2023/03/10 10:57:29;;;;;;;26.50;18.50;;;;;;;7.71;87.95;98101.13;102644;277;96479;-61
2023/03/10 11:00:27;;;;;;;28.80;19.00;;;;;;;7.99;88.15;98104.84;102530;277;97319;-57
2023/03/10 11:03:02;;;;;;;27.10;18.00;;;;;;;8.38;88.21;98099.42;102655;277;118349;-58
2023/03/10 11:05:40;;;;;;;26.20;18.10;;;;;;;8.54;87.65;98091.21;102524;283;106175;-58
2023/03/10 11:08:38;;;;;;;26.30;17.90;;;;;;;8.66;87.18;98091.88;102549;278;113983;-62
2023/03/10 11:11:32;;;;;;;26.40;16.90;;;;;;;8.65;86.87;98091.25;102477;278;96839;-62
2023/03/10 11:14:32;;;;;;;26.30;17.00;;;;;;;8.63;86.81;98092.02;102486;279;97111;-56
2023/03/10 11:17:20;;;;;;;27.30;18.40;;;;;;;8.69;86.62;98093.56;102457;278;118664;-56
2023/03/10 11:20:12;;;;;;;26.40;18.90;;;;;;;8.77;86.39;98089.21;102526;278;104714;-61
2023/03/10 11:22:54;;;;;;;30.50;19.70;;;;;;;8.94;86.42;98090.69;102503;279;113816;-59
2023/03/10 11:25:36;;;;;;;25.40;17.00;;;;;;;9.15;86.50;98082.96;102505;278;95525;-61
2023/03/10 11:28:31;;;;;;;23.30;15.70;;;;;;;9.32;86.17;98073.37;102515;278;97564;-54
2023/03/10 11:31:23;;;;;;;26.80;17.40;;;;;;;9.35;85.80;98067.09;102512;279;120196;-56
2023/03/10 11:34:12;;;;;;;25.10;17.10;;;;;;;9.48;85.97;98065.34;102512;278;105207;-60
2023/03/10 11:37:00;;;;;;;24.90;17.50;;;;;;;9.62;85.68;98061.73;102519;279;113637;-62
2023/03/10 11:39:53;;;;;;;28.40;16.00;;;;;;;9.61;85.27;98057.13;102576;278;93108;-56
2023/03/10 11:42:39;;;;;;;25.20;17.50;;;;;;;9.56;84.86;98050.89;102541;278;97255;-57
2023/03/10 11:45:29;;;;;;;25.40;16.80;;;;;;;9.65;85.11;98051.64;102533;278;118765;-60
2023/03/10 11:48:28;;;;;;;25.50;15.80;;;;;;;9.84;84.97;98042.25;102504;279;104915;-56
2023/03/10 11:51:16;;;;;;;24.90;16.10;;;;;;;9.89;84.26;98040.95;102502;278;114790;-56
2023/03/10 11:53:56;;;;;;;24.60;16.40;;;;;;;10.12;84.44;98033.64;102507;279;96861;-55
2023/03/10 11:56:31;;;;;;;25.90;16.50;;;;;;;10.15;83.92;98028.09;102488;278;97638;-60
2023/03/10 11:59:12;;;;;;;25.60;16.30;;;;;;;10.15;84.17;98025.93;102539;278;118087;-62
2023/03/10 12:02:00;;;;;;;24.20;16.50;;;;;;;10.23;83.70;98023.27;102546;278;105640;-57
2023/03/10 12:04:47;;;;;;;24.10;17.10;;;;;;;10.46;83.63;98025.10;102496;279;115185;-62
2023/03/10 12:07:30;;;;;;;22.30;15.70;;;;;;;10.68;83.08;98022.09;102536;278;93923;-64
2023/03/10 12:10:17;;;;;;;20.40;14.60;;;;;;;10.71;82.70;98026.84;102547;278;96882;-66
2023/03/10 12:13:17;;;;;;;22.30;15.30;;;;;;;10.74;82.56;98022.81;102492;278;117262;-66
2023/03/10 12:16:00;;;;;;;22.50;15.60;;;;;;;10.76;82.19;98025.77;102581;278;105279;-64
2023/03/10 12:18:44;;;;;;;24.30;15.50;;;;;;;10.77;82.39;98019.89;102558;279;113944;-62
2023/03/10 12:21:24;;;;;;;24.90;16.30;;;;;;;10.88;82.21;98019.19;102526;266;93629;-62
2023/03/10 12:24:02;;;;;;;23.30;15.20;;;;;;;10.96;82.06;98018.32;102545;278;97735;-62
2023/03/10 12:27:04;;;;;;;23.00;15.20;;;;;;;10.91;82.12;98013.76;102480;278;121219;-62